createdAt,value
2022-09-28T00:01:09.421Z,17.09
2022-09-28T00:03:36.672Z,17.09
2022-09-28T00:06:06.219Z,17.10
2022-09-28T00:08:33.922Z,17.12
2022-09-28T00:11:01.267Z,17.09
2022-09-28T00:13:28.325Z,17.11
2022-09-28T00:16:07.179Z,17.08
2022-09-28T00:18:34.650Z,17.10
2022-09-28T00:21:26.905Z,17.10
2022-09-28T00:24:15.567Z,17.14
2022-09-28T00:26:49.393Z,17.15
2022-09-28T00:29:17.759Z,17.11
2022-09-28T00:31:44.892Z,17.09
2022-09-28T00:34:12.600Z,17.00
2022-09-28T00:36:39.262Z,17.07
2022-09-28T00:39:08.426Z,17.05
2022-09-28T00:41:35.859Z,17.05
2022-09-28T00:44:21.133Z,17.07
2022-09-28T00:46:49.734Z,17.12
2022-09-28T00:49:18.988Z,17.13
2022-09-28T00:51:47.276Z,17.09
2022-09-28T00:54:16.252Z,17.05
2022-09-28T00:56:45.708Z,17.07
2022-09-28T00:59:12.342Z,17.06
2022-09-28T01:01:39.031Z,17.02
2022-09-28T01:04:06.490Z,16.99
2022-09-28T01:06:38.070Z,17.03
2022-09-28T01:09:07.680Z,16.99
2022-09-28T01:11:37.721Z,16.94
2022-09-28T01:14:08.304Z,16.92
2022-09-28T01:16:41.655Z,16.96
2022-09-28T01:19:36.729Z,16.93
2022-09-28T01:22:34.180Z,16.92
2022-09-28T01:25:10.231Z,16.91
2022-09-28T01:27:41.945Z,16.95
2022-09-28T01:30:12.093Z,16.97
2022-09-28T01:32:47.156Z,16.97
2022-09-28T01:35:35.641Z,16.99
2022-09-28T01:38:12.609Z,16.98
2022-09-28T01:40:40.759Z,16.89
2022-09-28T01:43:16.014Z,16.89
2022-09-28T01:45:47.134Z,16.93
2022-09-28T01:48:21.414Z,16.91
2022-09-28T01:50:54.693Z,16.97
2022-09-28T01:53:41.770Z,16.95
2022-09-28T01:56:13.191Z,16.96
2022-09-28T01:58:50.938Z,16.90
2022-09-28T02:01:27.452Z,16.90
2022-09-28T02:04:04.768Z,16.90
2022-09-28T02:06:41.209Z,16.87
2022-09-28T02:09:11.734Z,16.84
2022-09-28T02:11:43.519Z,16.83
2022-09-28T02:14:15.305Z,16.82
2022-09-28T02:16:42.969Z,16.84
2022-09-28T02:19:28.077Z,16.83
2022-09-28T02:22:29.168Z,16.85
2022-09-28T02:24:59.989Z,16.82
2022-09-28T02:27:35.496Z,16.80
2022-09-28T02:30:04.395Z,16.81
2022-09-28T02:32:33.823Z,16.80
2022-09-28T02:35:00.432Z,16.77
2022-09-28T02:37:28.223Z,16.78
2022-09-28T02:39:55.430Z,16.81
2022-09-28T02:42:34.500Z,16.82
2022-09-28T02:45:22.119Z,16.82
2022-09-28T02:47:55.597Z,16.84
2022-09-28T02:50:40.289Z,16.79
2022-09-28T02:53:19.777Z,16.86
2022-09-28T02:56:00.652Z,16.91
2022-09-28T02:59:04.632Z,16.91
2022-09-28T03:02:01.564Z,16.87
2022-09-28T03:04:56.699Z,16.88
2022-09-28T03:07:29.148Z,16.91
2022-09-28T03:10:10.581Z,16.93
2022-09-28T03:12:38.994Z,16.91
2022-09-28T03:15:10.110Z,16.91
2022-09-28T03:17:36.883Z,16.91
2022-09-28T03:20:05.406Z,16.91
2022-09-28T03:22:32.046Z,16.94
2022-09-28T03:24:58.587Z,16.94
2022-09-28T03:27:25.161Z,16.94
2022-09-28T03:29:51.719Z,16.95
2022-09-28T03:32:18.310Z,16.93
2022-09-28T03:34:44.870Z,16.96
2022-09-28T03:37:11.437Z,16.95
2022-09-28T03:39:38.011Z,16.90
2022-09-28T03:42:04.620Z,16.93
2022-09-28T03:44:31.296Z,16.91
2022-09-28T03:46:57.909Z,16.95
2022-09-28T03:49:24.524Z,16.90
2022-09-28T03:51:51.781Z,16.89
2022-09-28T03:54:19.055Z,16.91
2022-09-28T03:56:45.692Z,16.84
2022-09-28T03:59:12.285Z,16.84
2022-09-28T04:01:38.951Z,16.83
2022-09-28T04:04:05.640Z,16.84
2022-09-28T04:06:32.201Z,16.82
2022-09-28T04:08:58.794Z,16.83
2022-09-28T04:11:25.342Z,16.79
2022-09-28T04:13:51.991Z,16.77
2022-09-28T04:16:19.085Z,16.73
2022-09-28T04:18:47.117Z,16.72
2022-09-28T04:21:16.134Z,16.71
2022-09-28T04:23:43.278Z,16.74
2022-09-28T04:26:21.890Z,16.74
2022-09-28T04:29:07.808Z,16.76
2022-09-28T04:31:40.094Z,16.76
2022-09-28T04:34:06.798Z,16.77
2022-09-28T04:36:33.538Z,16.75
2022-09-28T04:39:00.304Z,16.72
2022-09-28T04:41:27.172Z,16.67
2022-09-28T04:43:53.746Z,16.67
2022-09-28T04:46:20.504Z,16.68
2022-09-28T04:48:47.136Z,16.68
2022-09-28T04:51:13.814Z,16.67
2022-09-28T04:53:40.503Z,16.68
2022-09-28T04:56:10.708Z,16.63
2022-09-28T04:58:37.782Z,16.63
2022-09-28T05:01:11.427Z,16.64
2022-09-28T05:03:38.311Z,16.64
2022-09-28T05:06:06.929Z,16.63
2022-09-28T05:08:35.308Z,16.63
2022-09-28T05:11:04.865Z,16.62
2022-09-28T05:13:40.706Z,16.59
2022-09-28T05:16:08.272Z,16.63
2022-09-28T05:18:34.863Z,16.60
2022-09-28T05:21:01.741Z,16.62
2022-09-28T05:23:28.300Z,16.60
2022-09-28T05:25:54.893Z,16.60
2022-09-28T05:28:28.253Z,16.59
2022-09-28T05:31:02.246Z,16.61
2022-09-28T05:33:29.689Z,16.62
2022-09-28T05:36:00.914Z,16.57
2022-09-28T05:38:28.413Z,16.56
2022-09-28T05:40:55.176Z,16.55
2022-09-28T05:43:22.280Z,16.60
2022-09-28T05:45:54.294Z,16.59
2022-09-28T05:48:22.563Z,16.63
2022-09-28T05:50:52.591Z,16.60
2022-09-28T05:53:19.298Z,16.56
2022-09-28T05:55:45.942Z,16.58
2022-09-28T05:58:12.617Z,16.61
2022-09-28T06:00:39.442Z,16.61
2022-09-28T06:03:09.624Z,16.74
2022-09-28T06:05:36.914Z,17.09
2022-09-28T06:08:05.319Z,17.27
2022-09-28T06:10:33.231Z,17.36
2022-09-28T06:13:00.437Z,17.60
2022-09-28T06:15:30.281Z,17.65
2022-09-28T06:18:04.311Z,17.68
2022-09-28T06:20:34.150Z,17.65
2022-09-28T06:23:00.701Z,17.55
2022-09-28T06:25:30.271Z,17.61
2022-09-28T06:27:59.106Z,17.64
2022-09-28T06:30:27.420Z,17.66
2022-09-28T06:32:55.983Z,17.66
2022-09-28T06:35:24.581Z,17.65
2022-09-28T06:37:51.744Z,17.59
2022-09-28T06:40:19.726Z,17.61
2022-09-28T06:42:58.702Z,17.58
2022-09-28T06:45:26.624Z,17.58
2022-09-28T06:48:03.089Z,17.58
2022-09-28T06:50:41.207Z,17.43
2022-09-28T06:53:10.541Z,17.41
2022-09-28T06:55:49.199Z,17.36
2022-09-28T06:58:20.044Z,17.33
2022-09-28T07:00:48.112Z,17.17
2022-09-28T07:03:20.107Z,17.11
2022-09-28T07:05:49.604Z,17.05
2022-09-28T07:08:17.680Z,17.12
2022-09-28T07:10:49.036Z,17.14
2022-09-28T07:13:44.152Z,17.12
2022-09-28T07:16:03.799Z,17.09
2022-09-28T07:18:30.498Z,17.11
2022-09-28T07:20:57.460Z,17.08
2022-09-28T07:23:27.466Z,17.11
2022-09-28T07:25:54.403Z,17.11
2022-09-28T07:28:21.747Z,17.07
2022-09-28T07:30:48.403Z,17.11
2022-09-28T07:33:16.042Z,17.13
2022-09-28T07:35:50.719Z,17.11
2022-09-28T07:38:17.276Z,17.12
2022-09-28T07:41:02.569Z,17.14
2022-09-28T07:43:29.243Z,17.06
2022-09-28T07:45:55.950Z,17.10
2022-09-28T07:48:23.189Z,17.08
2022-09-28T07:50:54.537Z,17.07
2022-09-28T07:53:22.954Z,17.10
2022-09-28T07:55:54.322Z,17.12
2022-09-28T07:58:21.284Z,17.16
2022-09-28T08:00:49.919Z,17.12
2022-09-28T08:03:17.560Z,17.17
2022-09-28T08:05:44.389Z,17.17
2022-09-28T08:08:11.583Z,17.21
2022-09-28T08:10:38.346Z,17.24
2022-09-28T08:13:07.536Z,17.24
2022-09-28T08:15:37.063Z,17.27
2022-09-28T08:18:07.212Z,17.25
2022-09-28T08:20:52.760Z,17.23
2022-09-28T08:23:20.387Z,17.27
2022-09-28T08:25:52.608Z,17.19
2022-09-28T08:28:19.603Z,17.16
2022-09-28T08:30:47.409Z,17.09
2022-09-28T08:33:15.731Z,17.02
2022-09-28T08:35:42.604Z,17.00
2022-09-28T08:38:09.714Z,17.00
2022-09-28T08:41:05.959Z,16.99
2022-09-28T08:43:52.060Z,17.02
2022-09-28T08:46:26.361Z,17.03
2022-09-28T08:49:24.093Z,17.07
2022-09-28T08:52:05.624Z,17.06
2022-09-28T08:55:01.451Z,17.16
2022-09-28T08:57:38.770Z,17.93
2022-09-28T09:00:11.004Z,18.08
2022-09-28T09:02:39.889Z,17.83
2022-09-28T09:05:14.799Z,17.83
2022-09-28T09:08:36.805Z,18.06
2022-09-28T09:11:31.314Z,18.91
2022-09-28T09:14:21.793Z,19.47
2022-09-28T09:17:22.411Z,20.00
2022-09-28T09:20:04.644Z,20.26
2022-09-28T09:22:49.424Z,20.98
2022-09-28T09:25:38.782Z,21.06
2022-09-28T09:28:53.183Z,20.18
2022-09-28T09:31:33.418Z,19.48
2022-09-28T09:34:15.371Z,19.67
2022-09-28T09:36:41.994Z,19.57
2022-09-28T09:39:21.652Z,19.38
2022-09-28T09:42:14.626Z,19.16
2022-09-28T09:44:56.609Z,19.16
2022-09-28T09:47:38.668Z,19.06
2022-09-28T09:50:15.081Z,18.92
2022-09-28T09:52:55.762Z,18.91
2022-09-28T09:55:30.196Z,18.95
2022-09-28T09:58:09.998Z,18.87
2022-09-28T10:00:42.882Z,18.76
2022-09-28T10:03:31.351Z,18.74
2022-09-28T10:06:06.964Z,18.82
2022-09-28T10:08:44.118Z,18.46
2022-09-28T10:11:15.513Z,17.90
2022-09-28T10:13:42.853Z,17.66
2022-09-28T10:16:09.521Z,17.44
2022-09-28T10:18:36.730Z,17.34
2022-09-28T10:21:03.523Z,17.25
2022-09-28T10:23:34.086Z,17.16
2022-09-28T10:26:06.444Z,17.11
2022-09-28T10:29:14.689Z,17.06
2022-09-28T10:31:48.441Z,17.03
2022-09-28T10:34:18.832Z,17.03
2022-09-28T10:37:01.428Z,17.05
2022-09-28T10:39:37.407Z,16.99
2022-09-28T10:42:09.745Z,17.05
2022-09-28T10:44:56.075Z,17.02
2022-09-28T10:47:26.375Z,17.02
2022-09-28T10:49:54.973Z,17.02
2022-09-28T10:52:36.695Z,17.02
2022-09-28T10:55:25.238Z,16.95
2022-09-28T10:57:52.996Z,16.97
2022-09-28T11:00:36.650Z,16.95
2022-09-28T11:03:03.643Z,16.94
2022-09-28T11:05:31.330Z,16.91
2022-09-28T11:08:00.871Z,16.89
2022-09-28T11:10:30.433Z,16.86
2022-09-28T11:12:58.001Z,16.87
2022-09-28T11:15:32.127Z,16.87
2022-09-28T11:18:31.465Z,16.87
2022-09-28T11:21:12.248Z,16.88
2022-09-28T11:23:42.142Z,16.91
2022-09-28T11:26:09.532Z,16.85
2022-09-28T11:28:37.558Z,16.85
2022-09-28T11:31:07.989Z,16.84
2022-09-28T11:33:45.141Z,16.86
2022-09-28T11:36:14.561Z,16.85
2022-09-28T11:38:47.457Z,16.80
2022-09-28T11:41:35.164Z,16.78
2022-09-28T11:44:36.343Z,16.77
2022-09-28T11:47:22.708Z,16.72
2022-09-28T11:50:01.988Z,16.75
2022-09-28T11:52:28.575Z,16.81
2022-09-28T11:55:01.268Z,16.81
2022-09-28T11:57:37.586Z,16.73
2022-09-28T12:00:11.851Z,16.62
2022-09-28T12:02:59.590Z,16.57
2022-09-28T12:05:30.363Z,16.55
2022-09-28T12:08:19.949Z,16.60
2022-09-28T12:11:09.804Z,16.64
2022-09-28T12:13:44.648Z,16.71
2022-09-28T12:16:53.054Z,16.70
2022-09-28T12:19:30.933Z,16.73
2022-09-28T12:22:05.217Z,16.72
2022-09-28T12:24:38.788Z,16.68
2022-09-28T12:27:41.179Z,16.68
2022-09-28T12:30:27.685Z,16.69
2022-09-28T12:33:07.014Z,16.71
2022-09-28T12:35:44.916Z,16.65
2022-09-28T12:38:46.001Z,16.64
2022-09-28T12:41:33.541Z,16.71
2022-09-28T12:44:13.187Z,16.75
2022-09-28T12:46:57.984Z,16.76
2022-09-28T12:50:36.956Z,16.77
2022-09-28T12:52:58.116Z,16.77
2022-09-28T12:55:56.549Z,16.75
2022-09-28T12:58:41.199Z,16.77
2022-09-28T13:01:44.248Z,16.71
2022-09-28T13:04:24.708Z,16.64
2022-09-28T13:07:06.328Z,16.68
2022-09-28T13:09:58.490Z,16.71
2022-09-28T13:13:18.274Z,16.72
2022-09-28T13:15:47.458Z,16.70
2022-09-28T13:18:29.216Z,16.68
2022-09-28T13:21:09.791Z,16.56
2022-09-28T13:23:45.725Z,16.54
2022-09-28T13:26:23.668Z,16.53
2022-09-28T13:28:54.727Z,16.47
2022-09-28T13:31:33.196Z,16.51
2022-09-28T13:34:03.520Z,16.59
2022-09-28T13:36:32.558Z,16.63
2022-09-28T13:39:00.960Z,16.70
2022-09-28T13:41:35.468Z,16.71
2022-09-28T13:44:11.153Z,16.71
2022-09-28T13:47:01.584Z,16.76
2022-09-28T13:49:52.906Z,16.70
2022-09-28T13:52:49.801Z,16.78
2022-09-28T13:55:32.971Z,16.83
2022-09-28T13:58:06.597Z,16.92
2022-09-28T14:00:50.557Z,16.95
2022-09-28T14:03:42.911Z,16.98
2022-09-28T14:06:25.533Z,16.98
2022-09-28T14:09:09.337Z,17.07
2022-09-28T14:11:35.845Z,17.10
2022-09-28T14:14:08.356Z,17.08
2022-09-28T14:16:36.963Z,17.13
2022-09-28T14:19:07.784Z,17.24
2022-09-28T14:21:47.906Z,17.34
2022-09-28T14:24:36.589Z,17.27
2022-09-28T14:27:37.223Z,17.14
2022-09-28T14:30:12.750Z,17.14
2022-09-28T14:32:55.055Z,17.04
2022-09-28T14:35:41.695Z,17.09
2022-09-28T14:38:39.660Z,17.07
2022-09-28T14:41:27.970Z,17.09
2022-09-28T14:43:59.405Z,17.00
2022-09-28T14:46:27.149Z,17.03
2022-09-28T14:48:55.304Z,16.99
2022-09-28T14:51:24.682Z,17.07
2022-09-28T14:53:52.776Z,17.05
2022-09-28T14:56:20.582Z,17.01
2022-09-28T14:58:54.363Z,16.98
2022-09-28T15:01:24.666Z,16.98
2022-09-28T15:04:02.149Z,16.94
2022-09-28T15:06:44.475Z,17.01
2022-09-28T15:09:31.935Z,17.08
2022-09-28T15:12:12.182Z,17.06
2022-09-28T15:14:48.912Z,17.01
2022-09-28T15:17:39.766Z,17.04
2022-09-28T15:20:29.937Z,16.99
2022-09-28T15:22:58.712Z,17.01
2022-09-28T15:25:28.216Z,16.98
2022-09-28T15:28:11.560Z,16.91
2022-09-28T15:30:38.291Z,16.84
2022-09-28T15:33:23.371Z,16.81
2022-09-28T15:36:04.693Z,16.78
2022-09-28T15:38:35.086Z,16.75
2022-09-28T15:41:07.136Z,16.76
2022-09-28T15:43:34.726Z,16.71
2022-09-28T15:46:18.212Z,16.67
2022-09-28T15:48:59.557Z,16.68
2022-09-28T15:51:27.504Z,16.72
2022-09-28T15:54:09.318Z,16.67
2022-09-28T15:57:02.462Z,16.63
2022-09-28T15:59:39.791Z,16.57
2022-09-28T16:02:15.033Z,16.59
2022-09-28T16:04:56.166Z,16.58
2022-09-28T16:07:56.329Z,16.63
2022-09-28T16:10:33.654Z,16.58
2022-09-28T16:13:29.398Z,16.54
2022-09-28T16:16:00.245Z,16.55
2022-09-28T16:18:29.531Z,16.55
2022-09-28T16:21:18.890Z,16.51
2022-09-28T16:23:51.776Z,16.48
2022-09-28T16:26:29.888Z,16.45
2022-09-28T16:28:56.493Z,16.47
2022-09-28T16:31:29.235Z,16.45
2022-09-28T16:34:20.290Z,16.50
2022-09-28T16:36:48.980Z,16.47
2022-09-28T16:39:17.354Z,16.50
2022-09-28T16:41:52.420Z,16.52
2022-09-28T16:44:24.223Z,16.51
2022-09-28T16:46:53.906Z,16.50
2022-09-28T16:49:20.973Z,16.56
2022-09-28T16:51:48.237Z,16.53
2022-09-28T16:54:37.954Z,16.54
2022-09-28T16:57:06.208Z,16.50
2022-09-28T16:59:33.226Z,16.53
2022-09-28T17:01:59.970Z,16.50
2022-09-28T17:04:26.821Z,16.49
2022-09-28T17:06:55.273Z,16.47
2022-09-28T17:09:22.568Z,16.46
2022-09-28T17:11:56.293Z,16.51
2022-09-28T17:14:24.352Z,16.45
2022-09-28T17:17:12.634Z,16.42
2022-09-28T17:19:40.295Z,16.36
2022-09-28T17:22:08.107Z,16.33
2022-09-28T17:24:35.189Z,16.29
2022-09-28T17:27:03.297Z,16.33
2022-09-28T17:29:30.076Z,16.37
2022-09-28T17:31:56.713Z,16.32
2022-09-28T17:34:23.785Z,16.41
2022-09-28T17:36:50.347Z,16.38
2022-09-28T17:39:19.116Z,16.36
2022-09-28T17:41:46.083Z,16.38
2022-09-28T17:44:16.387Z,16.40
2022-09-28T17:46:49.318Z,16.42
2022-09-28T17:49:17.013Z,16.46
2022-09-28T17:51:43.922Z,16.41
2022-09-28T17:54:11.082Z,16.38
2022-09-28T17:56:37.714Z,16.37
2022-09-28T17:59:07.434Z,16.42
2022-09-28T18:01:38.052Z,16.40
2022-09-28T18:04:06.734Z,16.32
2022-09-28T18:06:33.938Z,16.29
2022-09-28T18:09:03.073Z,16.22
2022-09-28T18:11:31.374Z,16.21
2022-09-28T18:13:58.032Z,16.21
2022-09-28T18:16:24.949Z,16.25
2022-09-28T18:18:51.567Z,16.23
2022-09-28T18:21:18.227Z,16.20
2022-09-28T18:23:44.768Z,16.22
2022-09-28T18:26:15.395Z,16.27
2022-09-28T18:28:41.995Z,16.23
2022-09-28T18:31:10.618Z,16.24
2022-09-28T18:33:52.925Z,16.23
2022-09-28T18:36:19.500Z,16.25
2022-09-28T18:38:46.070Z,16.26
2022-09-28T18:41:15.891Z,16.22
2022-09-28T18:43:44.265Z,16.22
2022-09-28T18:46:11.854Z,16.18
2022-09-28T18:48:40.524Z,16.17
2022-09-28T18:51:12.471Z,16.15
2022-09-28T18:53:40.118Z,16.16
2022-09-28T18:56:13.186Z,16.16
2022-09-28T18:58:41.307Z,16.13
2022-09-28T19:01:30.884Z,16.15
2022-09-28T19:04:03.193Z,16.23
2022-09-28T19:06:31.785Z,16.22
2022-09-28T19:08:58.843Z,16.22
2022-09-28T19:11:25.815Z,16.19
2022-09-28T19:13:54.713Z,16.17
2022-09-28T19:16:28.658Z,16.17
2022-09-28T19:18:58.781Z,16.16
2022-09-28T19:21:26.765Z,16.16
2022-09-28T19:23:55.428Z,16.21
2022-09-28T19:26:25.422Z,16.17
2022-09-28T19:28:52.007Z,16.18
2022-09-28T19:31:19.139Z,16.23
2022-09-28T19:33:46.370Z,16.20
2022-09-28T19:36:24.597Z,16.22
2022-09-28T19:38:52.714Z,16.18
2022-09-28T19:41:43.334Z,16.14
2022-09-28T19:44:19.388Z,16.12
2022-09-28T19:46:46.121Z,16.10
2022-09-28T19:49:18.395Z,16.14
2022-09-28T19:52:11.035Z,16.13
2022-09-28T19:54:36.646Z,16.10
2022-09-28T19:57:08.555Z,16.13
2022-09-28T19:59:37.203Z,16.12
2022-09-28T20:02:05.533Z,16.13
2022-09-28T20:04:32.136Z,16.15
2022-09-28T20:06:59.015Z,16.14
2022-09-28T20:09:25.614Z,16.12
2022-09-28T20:11:53.093Z,16.10
2022-09-28T20:14:21.455Z,16.12
2022-09-28T20:16:50.169Z,16.13
2022-09-28T20:19:19.049Z,16.12
2022-09-28T20:21:48.062Z,16.10
2022-09-28T20:24:16.173Z,16.08
2022-09-28T20:26:43.517Z,16.12
2022-09-28T20:29:10.660Z,16.10
2022-09-28T20:31:37.850Z,16.07
2022-09-28T20:34:05.888Z,16.02
2022-09-28T20:36:33.233Z,16.03
2022-09-28T20:39:01.829Z,15.99
2022-09-28T20:41:35.631Z,16.03
2022-09-28T20:44:05.599Z,16.04
2022-09-28T20:46:34.193Z,16.07
2022-09-28T20:49:00.988Z,16.08
2022-09-28T20:51:27.565Z,16.09
2022-09-28T20:53:56.733Z,16.07
2022-09-28T20:56:40.107Z,16.05
2022-09-28T20:59:12.233Z,16.05
2022-09-28T21:01:39.341Z,15.99
2022-09-28T21:04:08.265Z,15.93
2022-09-28T21:06:37.304Z,15.91
2022-09-28T21:09:05.686Z,15.87
2022-09-28T21:11:34.253Z,15.90
2022-09-28T21:14:02.738Z,15.91
2022-09-28T21:16:31.726Z,15.97
2022-09-28T21:18:59.036Z,16.00
2022-09-28T21:21:26.356Z,15.99
2022-09-28T21:23:54.312Z,16.03
2022-09-28T21:26:26.043Z,16.05
2022-09-28T21:28:54.374Z,16.03
2022-09-28T21:31:27.737Z,15.95
2022-09-28T21:33:56.365Z,15.93
2022-09-28T21:36:22.906Z,15.96
2022-09-28T21:38:49.477Z,15.95
2022-09-28T21:41:16.343Z,15.96
2022-09-28T21:43:43.114Z,15.98
2022-09-28T21:46:09.934Z,15.98
2022-09-28T21:48:36.559Z,15.98
2022-09-28T21:51:06.397Z,15.96
2022-09-28T21:53:35.783Z,15.97
2022-09-28T21:56:04.176Z,16.03
2022-09-28T21:58:33.591Z,16.05
2022-09-28T22:01:09.405Z,16.04
2022-09-28T22:03:36.692Z,16.08
2022-09-28T22:06:04.243Z,16.09
2022-09-28T22:08:31.249Z,16.08
2022-09-28T22:11:03.648Z,16.09
2022-09-28T22:13:32.044Z,16.08
2022-09-28T22:15:58.978Z,16.09
2022-09-28T22:18:27.169Z,16.09
2022-09-28T22:21:11.822Z,16.06
2022-09-28T22:23:39.483Z,16.05
2022-09-28T22:26:11.673Z,16.05
2022-09-28T22:28:39.958Z,16.03
2022-09-28T22:31:06.742Z,16.01
2022-09-28T22:33:34.277Z,16.01
2022-09-28T22:36:00.984Z,15.96
2022-09-28T22:38:28.112Z,15.95
2022-09-28T22:40:56.514Z,15.97
2022-09-28T22:43:25.082Z,15.97
2022-09-28T22:46:13.437Z,15.99
2022-09-28T22:48:40.270Z,16.01
2022-09-28T22:51:07.352Z,16.00
2022-09-28T22:53:35.287Z,15.99
2022-09-28T22:56:05.596Z,15.99
2022-09-28T22:58:36.969Z,16.00
2022-09-28T23:01:11.915Z,15.98
2022-09-28T23:03:40.491Z,15.98
2022-09-28T23:06:08.201Z,15.98
2022-09-28T23:08:35.465Z,15.98
2022-09-28T23:11:02.134Z,16.02
2022-09-28T23:13:30.946Z,16.00
2022-09-28T23:15:58.224Z,15.96
2022-09-28T23:18:27.201Z,15.98
2022-09-28T23:20:59.224Z,15.98
2022-09-28T23:23:26.437Z,15.94
2022-09-28T23:25:53.583Z,15.94
2022-09-28T23:28:22.592Z,15.93
2022-09-28T23:30:49.665Z,15.94
2022-09-28T23:33:17.998Z,15.91
2022-09-28T23:35:44.849Z,15.88
2022-09-28T23:38:13.671Z,15.90
2022-09-28T23:40:43.475Z,15.93
2022-09-28T23:43:10.089Z,15.95
2022-09-28T23:45:36.659Z,15.95
2022-09-28T23:48:03.352Z,15.98
2022-09-28T23:50:29.899Z,15.97
2022-09-28T23:52:56.436Z,15.95
2022-09-28T23:55:23.003Z,15.95
2022-09-28T23:57:49.568Z,15.93
